Balde, Argentina
Current Conditions -  °F | °C
As of 12:00 AM on Friday 19 Dec 2014 (Local Time) from SAME Reporting Station
Clear Clear  
Wind Chill: 77°   Ceiling: Unl
Heat Index: 78°   Visibility: 6mi
Dew Point: 50°   Wind: 8mph
Humidity: 39%   Direction: 320°NW
Pressure: 29.8"   Gusts: NA
Location:  33.33°S, 66.63°W
Report Text: SAME 190300Z 32007KT CAVOK 25/10 Q1009
Loading
Personal Weather Stations






























Interactive Weather Map New forecast layout! Learn more

10-Day Weather Forecast

Advertisements
Track Severe Weather on mobile